sensor_id;sensor_type;location;lat;lon;timestamp;temperature;humidity
21318;DHT22;10818;50.830;6.524;2023-02-15T00:02:20;2.40;99.90
21318;DHT22;10818;50.830;6.524;2023-02-15T00:07:21;2.40;99.90
21318;DHT22;10818;50.830;6.524;2023-02-15T00:12:22;2.40;99.90
21318;DHT22;10818;50.830;6.524;2023-02-15T00:17:22;2.30;99.90
21318;DHT22;10818;50.830;6.524;2023-02-15T00:22:22;2.30;99.90
21318;DHT22;10818;50.830;6.524;2023-02-15T00:27:23;2.20;99.90
21318;DHT22;10818;50.830;6.524;2023-02-15T00:32:24;2.20;99.90
21318;DHT22;10818;50.830;6.524;2023-02-15T00:37:24;2.10;99.90
21318;DHT22;10818;50.830;6.524;2023-02-15T00:42:24;2.10;99.90
21318;DHT22;10818;50.830;6.524;2023-02-15T00:47:25;2.10;99.90
21318;DHT22;10818;50.830;6.524;2023-02-15T00:52:25;2.00;99.90
21318;DHT22;10818;50.830;6.524;2023-02-15T00:57:26;1.90;99.90
21318;DHT22;10818;50.830;6.524;2023-02-15T01:02:26;1.90;99.90
21318;DHT22;10818;50.830;6.524;2023-02-15T01:07:27;1.90;99.90
21318;DHT22;10818;50.830;6.524;2023-02-15T01:12:27;2.00;99.90
21318;DHT22;10818;50.830;6.524;2023-02-15T01:17:28;1.90;99.90
21318;DHT22;10818;50.830;6.524;2023-02-15T01:22:28;1.90;99.90
21318;DHT22;10818;50.830;6.524;2023-02-15T01:27:29;1.90;99.90
21318;DHT22;10818;50.830;6.524;2023-02-15T01:32:32;1.90;99.90
21318;DHT22;10818;50.830;6.524;2023-02-15T01:37:33;1.90;99.90
21318;DHT22;10818;50.830;6.524;2023-02-15T01:42:34;1.90;99.90
21318;DHT22;10818;50.830;6.524;2023-02-15T01:47:42;1.70;99.90
21318;DHT22;10818;50.830;6.524;2023-02-15T01:52:45;1.70;99.90
21318;DHT22;10818;50.830;6.524;2023-02-15T01:57:47;1.70;99.90
21318;DHT22;10818;50.830;6.524;2023-02-15T02:02:49;1.60;99.90
21318;DHT22;10818;50.830;6.524;2023-02-15T02:07:50;1.70;99.90
21318;DHT22;10818;50.830;6.524;2023-02-15T02:12:54;1.70;99.90
21318;DHT22;10818;50.830;6.524;2023-02-15T02:33:30;1.50;99.90
21318;DHT22;10818;50.830;6.524;2023-02-15T02:44:38;1.30;99.90
21318;DHT22;10818;50.830;6.524;2023-02-15T02:49:05;1.30;99.90
21318;DHT22;10818;50.830;6.524;2023-02-15T02:54:06;1.30;99.90
21318;DHT22;10818;50.830;6.524;2023-02-15T02:59:15;1.30;99.90
21318;DHT22;10818;50.830;6.524;2023-02-15T03:04:18;1.40;99.90
21318;DHT22;10818;50.830;6.524;2023-02-15T03:09:23;1.30;99.90
21318;DHT22;10818;50.830;6.524;2023-02-15T03:14:25;1.40;99.90
21318;DHT22;10818;50.830;6.524;2023-02-15T03:19:27;1.30;99.90
21318;DHT22;10818;50.830;6.524;2023-02-15T03:24:28;1.20;99.90
21318;DHT22;10818;50.830;6.524;2023-02-15T03:29:31;1.30;99.90
21318;DHT22;10818;50.830;6.524;2023-02-15T03:34:32;1.40;99.90
21318;DHT22;10818;50.830;6.524;2023-02-15T03:39:35;1.30;99.90
21318;DHT22;10818;50.830;6.524;2023-02-15T03:44:47;1.30;99.90
21318;DHT22;10818;50.830;6.524;2023-02-15T03:54:50;1.20;99.90
21318;DHT22;10818;50.830;6.524;2023-02-15T03:59:51;1.20;99.90
21318;DHT22;10818;50.830;6.524;2023-02-15T04:05:10;1.10;99.90
21318;DHT22;10818;50.830;6.524;2023-02-15T04:10:10;1.00;99.90
21318;DHT22;10818;50.830;6.524;2023-02-15T04:15:29;1.10;99.90
21318;DHT22;10818;50.830;6.524;2023-02-15T04:20:49;1.00;99.90
21318;DHT22;10818;50.830;6.524;2023-02-15T04:26:08;1.00;99.90
21318;DHT22;10818;50.830;6.524;2023-02-15T04:31:09;0.90;99.90
21318;DHT22;10818;50.830;6.524;2023-02-15T04:36:09;0.90;99.90
21318;DHT22;10818;50.830;6.524;2023-02-15T04:41:09;1.00;99.90
21318;DHT22;10818;50.830;6.524;2023-02-15T04:46:12;0.90;99.90
21318;DHT22;10818;50.830;6.524;2023-02-15T04:51:13;0.80;99.90
21318;DHT22;10818;50.830;6.524;2023-02-15T04:56:13;0.80;99.90
21318;DHT22;10818;50.830;6.524;2023-02-15T05:01:14;0.90;99.90
21318;DHT22;10818;50.830;6.524;2023-02-15T05:06:14;0.80;99.90
21318;DHT22;10818;50.830;6.524;2023-02-15T05:11:14;0.80;99.90
21318;DHT22;10818;50.830;6.524;2023-02-15T05:16:15;0.80;99.90
21318;DHT22;10818;50.830;6.524;2023-02-15T05:21:15;0.70;99.90
21318;DHT22;10818;50.830;6.524;2023-02-15T05:26:18;0.60;99.90
21318;DHT22;10818;50.830;6.524;2023-02-15T05:31:37;0.70;99.90
21318;DHT22;10818;50.830;6.524;2023-02-15T05:36:37;0.70;99.90
21318;DHT22;10818;50.830;6.524;2023-02-15T05:41:37;0.70;99.90
21318;DHT22;10818;50.830;6.524;2023-02-15T05:46:38;0.60;99.90
21318;DHT22;10818;50.830;6.524;2023-02-15T05:51:38;0.60;99.90
21318;DHT22;10818;50.830;6.524;2023-02-15T05:56:39;0.60;99.90
21318;DHT22;10818;50.830;6.524;2023-02-15T06:01:39;0.70;99.90
21318;DHT22;10818;50.830;6.524;2023-02-15T06:06:40;0.60;99.90
21318;DHT22;10818;50.830;6.524;2023-02-15T06:11:40;0.60;99.90
21318;DHT22;10818;50.830;6.524;2023-02-15T06:16:41;0.60;99.90
21318;DHT22;10818;50.830;6.524;2023-02-15T06:21:41;0.60;99.90
21318;DHT22;10818;50.830;6.524;2023-02-15T06:26:41;0.60;99.90
21318;DHT22;10818;50.830;6.524;2023-02-15T06:31:42;0.70;99.90
21318;DHT22;10818;50.830;6.524;2023-02-15T06:36:43;0.60;99.90
21318;DHT22;10818;50.830;6.524;2023-02-15T06:41:43;0.70;99.90
21318;DHT22;10818;50.830;6.524;2023-02-15T06:46:44;0.70;99.90
21318;DHT22;10818;50.830;6.524;2023-02-15T06:51:44;0.60;99.90
21318;DHT22;10818;50.830;6.524;2023-02-15T06:56:45;0.60;99.90
21318;DHT22;10818;50.830;6.524;2023-02-15T07:01:45;0.50;99.90
21318;DHT22;10818;50.830;6.524;2023-02-15T07:06:46;0.80;99.90
21318;DHT22;10818;50.830;6.524;2023-02-15T07:11:46;0.80;99.90
21318;DHT22;10818;50.830;6.524;2023-02-15T07:17:06;0.90;99.90
21318;DHT22;10818;50.830;6.524;2023-02-15T07:22:06;0.90;99.90
21318;DHT22;10818;50.830;6.524;2023-02-15T07:27:07;1.00;99.90
21318;DHT22;10818;50.830;6.524;2023-02-15T07:32:08;1.00;99.90
21318;DHT22;10818;50.830;6.524;2023-02-15T07:37:08;1.10;99.90
21318;DHT22;10818;50.830;6.524;2023-02-15T07:42:09;1.10;99.90
21318;DHT22;10818;50.830;6.524;2023-02-15T07:47:09;1.30;99.90
21318;DHT22;10818;50.830;6.524;2023-02-15T07:52:11;1.50;99.90
21318;DHT22;10818;50.830;6.524;2023-02-15T07:57:12;1.70;99.90
21318;DHT22;10818;50.830;6.524;2023-02-15T08:02:12;1.90;99.90
21318;DHT22;10818;50.830;6.524;2023-02-15T08:07:12;5.30;99.90
21318;DHT22;10818;50.830;6.524;2023-02-15T08:12:13;8.40;99.90
21318;DHT22;10818;50.830;6.524;2023-02-15T08:17:13;10.40;99.90
21318;DHT22;10818;50.830;6.524;2023-02-15T08:22:14;13.10;99.90
21318;DHT22;10818;50.830;6.524;2023-02-15T08:27:15;14.00;99.90
21318;DHT22;10818;50.830;6.524;2023-02-15T08:32:15;15.50;99.90
21318;DHT22;10818;50.830;6.524;2023-02-15T08:37:16;17.10;99.90
21318;DHT22;10818;50.830;6.524;2023-02-15T08:42:16;18.20;97.40
21318;DHT22;10818;50.830;6.524;2023-02-15T08:47:16;20.90;92.80
21318;DHT22;10818;50.830;6.524;2023-02-15T08:52:17;22.10;84.70
21318;DHT22;10818;50.830;6.524;2023-02-15T08:57:17;22.00;78.80
21318;DHT22;10818;50.830;6.524;2023-02-15T09:02:18;21.90;78.10
21318;DHT22;10818;50.830;6.524;2023-02-15T09:07:18;22.50;75.40
21318;DHT22;10818;50.830;6.524;2023-02-15T09:12:19;23.80;75.20
21318;DHT22;10818;50.830;6.524;2023-02-15T09:17:19;24.90;69.30
21318;DHT22;10818;50.830;6.524;2023-02-15T09:22:20;26.10;66.20
21318;DHT22;10818;50.830;6.524;2023-02-15T09:27:20;24.50;64.60
21318;DHT22;10818;50.830;6.524;2023-02-15T09:32:20;19.30;72.80
21318;DHT22;10818;50.830;6.524;2023-02-15T09:37:22;14.90;88.20
21318;DHT22;10818;50.830;6.524;2023-02-15T09:52:48;10.70;99.90
21318;DHT22;10818;50.830;6.524;2023-02-15T09:58:00;10.10;99.90
21318;DHT22;10818;50.830;6.524;2023-02-15T10:03:12;9.80;99.90
21318;DHT22;10818;50.830;6.524;2023-02-15T10:08:21;9.80;99.90
21318;DHT22;10818;50.830;6.524;2023-02-15T10:13:32;9.60;99.90
21318;DHT22;10818;50.830;6.524;2023-02-15T10:18:42;9.50;99.90
21318;DHT22;10818;50.830;6.524;2023-02-15T10:28:53;9.20;99.90
21318;DHT22;10818;50.830;6.524;2023-02-15T10:34:01;9.70;99.90
21318;DHT22;10818;50.830;6.524;2023-02-15T10:39:13;9.50;99.90
21318;DHT22;10818;50.830;6.524;2023-02-15T10:54:42;9.60;99.90
21318;DHT22;10818;50.830;6.524;2023-02-15T10:59:51;9.90;99.90
21318;DHT22;10818;50.830;6.524;2023-02-15T11:05:07;10.20;99.90
21318;DHT22;10818;50.830;6.524;2023-02-15T11:15:38;10.50;99.90
21318;DHT22;10818;50.830;6.524;2023-02-15T11:25:56;10.30;99.90
21318;DHT22;10818;50.830;6.524;2023-02-15T11:30:58;10.80;99.90
21318;DHT22;10818;50.830;6.524;2023-02-15T11:36:01;11.10;99.90
21318;DHT22;10818;50.830;6.524;2023-02-15T11:41:05;11.00;99.90
21318;DHT22;10818;50.830;6.524;2023-02-15T11:46:07;11.20;99.90
21318;DHT22;10818;50.830;6.524;2023-02-15T11:51:09;11.30;99.90
21318;DHT22;10818;50.830;6.524;2023-02-15T11:56:32;11.40;99.90
21318;DHT22;10818;50.830;6.524;2023-02-15T12:01:35;11.40;99.90
21318;DHT22;10818;50.830;6.524;2023-02-15T12:06:44;11.60;99.90
21318;DHT22;10818;50.830;6.524;2023-02-15T12:11:45;11.90;99.90
21318;DHT22;10818;50.830;6.524;2023-02-15T12:16:50;12.00;99.90
21318;DHT22;10818;50.830;6.524;2023-02-15T12:21:51;12.10;99.90
21318;DHT22;10818;50.830;6.524;2023-02-15T12:27:35;12.00;99.90
21318;DHT22;10818;50.830;6.524;2023-02-15T12:32:27;12.20;99.90
21318;DHT22;10818;50.830;6.524;2023-02-15T12:37:29;12.30;99.90
21318;DHT22;10818;50.830;6.524;2023-02-15T12:42:42;12.60;99.90
21318;DHT22;10818;50.830;6.524;2023-02-15T12:47:43;12.40;99.90
21318;DHT22;10818;50.830;6.524;2023-02-15T12:52:44;12.50;99.90
21318;DHT22;10818;50.830;6.524;2023-02-15T12:57:45;12.80;99.90
21318;DHT22;10818;50.830;6.524;2023-02-15T13:02:48;12.70;99.90
21318;DHT22;10818;50.830;6.524;2023-02-15T13:07:50;13.00;99.90
21318;DHT22;10818;50.830;6.524;2023-02-15T13:12:52;12.80;99.90
21318;DHT22;10818;50.830;6.524;2023-02-15T13:17:55;13.00;99.90
21318;DHT22;10818;50.830;6.524;2023-02-15T13:23:03;13.10;99.90
21318;DHT22;10818;50.830;6.524;2023-02-15T13:28:05;13.20;99.90
21318;DHT22;10818;50.830;6.524;2023-02-15T13:33:19;13.20;99.90
21318;DHT22;10818;50.830;6.524;2023-02-15T13:38:23;13.20;99.90
21318;DHT22;10818;50.830;6.524;2023-02-15T13:48:50;13.30;99.90
21318;DHT22;10818;50.830;6.524;2023-02-15T13:53:56;13.30;99.90
21318;DHT22;10818;50.830;6.524;2023-02-15T14:04:22;13.20;99.90
21318;DHT22;10818;50.830;6.524;2023-02-15T14:09:27;13.30;99.90
21318;DHT22;10818;50.830;6.524;2023-02-15T14:14:41;13.20;99.90
21318;DHT22;10818;50.830;6.524;2023-02-15T14:19:48;13.30;99.90
21318;DHT22;10818;50.830;6.524;2023-02-15T14:29:57;13.20;99.90
21318;DHT22;10818;50.830;6.524;2023-02-15T14:34:59;13.30;99.90
21318;DHT22;10818;50.830;6.524;2023-02-15T14:45:50;13.10;99.90
21318;DHT22;10818;50.830;6.524;2023-02-15T14:50:52;13.30;99.90
21318;DHT22;10818;50.830;6.524;2023-02-15T14:56:38;13.30;99.90
21318;DHT22;10818;50.830;6.524;2023-02-15T15:01:13;13.20;99.90
21318;DHT22;10818;50.830;6.524;2023-02-15T15:06:55;13.10;99.90
21318;DHT22;10818;50.830;6.524;2023-02-15T15:11:45;13.10;99.90
21318;DHT22;10818;50.830;6.524;2023-02-15T15:16:47;13.10;99.90
21318;DHT22;10818;50.830;6.524;2023-02-15T15:26:49;12.70;99.90
21318;DHT22;10818;50.830;6.524;2023-02-15T15:32:09;12.70;99.90
21318;DHT22;10818;50.830;6.524;2023-02-15T15:37:26;12.70;99.90
21318;DHT22;10818;50.830;6.524;2023-02-15T15:52:59;12.40;99.90
21318;DHT22;10818;50.830;6.524;2023-02-15T15:58:04;12.30;99.90
21318;DHT22;10818;50.830;6.524;2023-02-15T16:03:05;12.00;99.90
21318;DHT22;10818;50.830;6.524;2023-02-15T16:08:06;12.00;99.90
21318;DHT22;10818;50.830;6.524;2023-02-15T16:13:07;11.90;99.90
21318;DHT22;10818;50.830;6.524;2023-02-15T16:18:10;11.60;99.90
21318;DHT22;10818;50.830;6.524;2023-02-15T16:28:15;11.10;99.90
21318;DHT22;10818;50.830;6.524;2023-02-15T16:33:18;11.00;99.90
21318;DHT22;10818;50.830;6.524;2023-02-15T16:43:40;10.60;99.90
21318;DHT22;10818;50.830;6.524;2023-02-15T16:48:42;10.40;99.90
21318;DHT22;10818;50.830;6.524;2023-02-15T16:53:43;10.20;99.90
21318;DHT22;10818;50.830;6.524;2023-02-15T16:58:46;10.00;99.90
21318;DHT22;10818;50.830;6.524;2023-02-15T17:03:50;9.90;99.90
21318;DHT22;10818;50.830;6.524;2023-02-15T17:08:50;9.70;99.90
21318;DHT22;10818;50.830;6.524;2023-02-15T17:19:14;9.60;99.90
21318;DHT22;10818;50.830;6.524;2023-02-15T17:24:16;9.40;99.90
21318;DHT22;10818;50.830;6.524;2023-02-15T17:29:30;9.30;99.90
21318;DHT22;10818;50.830;6.524;2023-02-15T17:34:42;9.30;99.90
21318;DHT22;10818;50.830;6.524;2023-02-15T17:39:43;9.30;99.90
21318;DHT22;10818;50.830;6.524;2023-02-15T17:44:44;9.10;99.90
21318;DHT22;10818;50.830;6.524;2023-02-15T17:49:44;8.80;99.90
21318;DHT22;10818;50.830;6.524;2023-02-15T17:54:45;8.80;99.90
21318;DHT22;10818;50.830;6.524;2023-02-15T18:00:05;8.50;99.90
21318;DHT22;10818;50.830;6.524;2023-02-15T18:05:24;8.40;99.90
21318;DHT22;10818;50.830;6.524;2023-02-15T18:10:43;8.20;99.90
21318;DHT22;10818;50.830;6.524;2023-02-15T18:16:03;8.20;99.90
21318;DHT22;10818;50.830;6.524;2023-02-15T18:21:03;8.20;99.90
21318;DHT22;10818;50.830;6.524;2023-02-15T18:26:09;7.90;99.90
21318;DHT22;10818;50.830;6.524;2023-02-15T18:31:10;8.00;99.90
21318;DHT22;10818;50.830;6.524;2023-02-15T18:36:13;8.00;99.90
21318;DHT22;10818;50.830;6.524;2023-02-15T18:41:15;7.90;99.90
21318;DHT22;10818;50.830;6.524;2023-02-15T18:46:16;7.70;99.90
21318;DHT22;10818;50.830;6.524;2023-02-15T18:51:18;7.60;99.90
21318;DHT22;10818;50.830;6.524;2023-02-15T18:56:20;7.40;99.90
21318;DHT22;10818;50.830;6.524;2023-02-15T19:01:21;7.30;99.90
21318;DHT22;10818;50.830;6.524;2023-02-15T19:06:22;7.40;99.90
21318;DHT22;10818;50.830;6.524;2023-02-15T19:11:24;7.30;99.90
21318;DHT22;10818;50.830;6.524;2023-02-15T19:16:31;7.20;99.90
21318;DHT22;10818;50.830;6.524;2023-02-15T19:21:31;7.20;99.90
21318;DHT22;10818;50.830;6.524;2023-02-15T19:26:33;7.20;99.90
21318;DHT22;10818;50.830;6.524;2023-02-15T19:31:35;7.10;99.90
21318;DHT22;10818;50.830;6.524;2023-02-15T19:36:36;7.10;99.90
21318;DHT22;10818;50.830;6.524;2023-02-15T19:41:36;7.10;99.90
21318;DHT22;10818;50.830;6.524;2023-02-15T19:46:37;7.10;99.90
21318;DHT22;10818;50.830;6.524;2023-02-15T19:51:38;7.00;99.90
21318;DHT22;10818;50.830;6.524;2023-02-15T19:56:39;7.00;99.90
21318;DHT22;10818;50.830;6.524;2023-02-15T20:01:39;7.10;99.90
21318;DHT22;10818;50.830;6.524;2023-02-15T20:06:40;7.10;99.90
21318;DHT22;10818;50.830;6.524;2023-02-15T20:11:40;7.10;99.90
21318;DHT22;10818;50.830;6.524;2023-02-15T20:16:41;7.10;99.90
21318;DHT22;10818;50.830;6.524;2023-02-15T20:21:42;7.10;99.90
21318;DHT22;10818;50.830;6.524;2023-02-15T20:26:43;7.00;99.90
21318;DHT22;10818;50.830;6.524;2023-02-15T20:31:44;7.00;99.90
21318;DHT22;10818;50.830;6.524;2023-02-15T20:36:44;7.10;99.90
21318;DHT22;10818;50.830;6.524;2023-02-15T20:41:45;7.10;99.90
21318;DHT22;10818;50.830;6.524;2023-02-15T20:46:48;6.90;99.90
21318;DHT22;10818;50.830;6.524;2023-02-15T20:51:49;6.80;99.90
21318;DHT22;10818;50.830;6.524;2023-02-15T20:56:50;6.60;99.90
21318;DHT22;10818;50.830;6.524;2023-02-15T21:01:53;6.50;99.90
21318;DHT22;10818;50.830;6.524;2023-02-15T21:06:54;6.40;99.90
21318;DHT22;10818;50.830;6.524;2023-02-15T21:11:55;6.30;99.90
21318;DHT22;10818;50.830;6.524;2023-02-15T21:16:57;6.30;99.90
21318;DHT22;10818;50.830;6.524;2023-02-15T21:21:57;6.20;99.90
21318;DHT22;10818;50.830;6.524;2023-02-15T21:27:00;6.00;99.90
21318;DHT22;10818;50.830;6.524;2023-02-15T21:32:01;6.00;99.90
21318;DHT22;10818;50.830;6.524;2023-02-15T21:37:03;5.80;99.90
21318;DHT22;10818;50.830;6.524;2023-02-15T21:42:04;5.80;99.90
21318;DHT22;10818;50.830;6.524;2023-02-15T21:47:28;5.70;99.90
21318;DHT22;10818;50.830;6.524;2023-02-15T21:52:47;5.50;99.90
21318;DHT22;10818;50.830;6.524;2023-02-15T21:57:47;5.40;99.90
21318;DHT22;10818;50.830;6.524;2023-02-15T22:02:50;5.40;99.90
21318;DHT22;10818;50.830;6.524;2023-02-15T22:07:50;5.30;99.90
21318;DHT22;10818;50.830;6.524;2023-02-15T22:12:51;5.40;99.90
21318;DHT22;10818;50.830;6.524;2023-02-15T22:17:52;5.30;99.90
21318;DHT22;10818;50.830;6.524;2023-02-15T22:22:53;5.10;99.90
21318;DHT22;10818;50.830;6.524;2023-02-15T22:27:53;4.80;99.90
21318;DHT22;10818;50.830;6.524;2023-02-15T22:32:55;4.80;99.90
21318;DHT22;10818;50.830;6.524;2023-02-15T22:37:56;4.70;99.90
21318;DHT22;10818;50.830;6.524;2023-02-15T22:42:58;4.50;99.90
21318;DHT22;10818;50.830;6.524;2023-02-15T22:47:58;4.50;99.90
21318;DHT22;10818;50.830;6.524;2023-02-15T22:53:00;4.50;99.90
21318;DHT22;10818;50.830;6.524;2023-02-15T22:58:00;4.40;99.90
21318;DHT22;10818;50.830;6.524;2023-02-15T23:03:04;4.30;99.90
21318;DHT22;10818;50.830;6.524;2023-02-15T23:08:09;4.20;99.90
21318;DHT22;10818;50.830;6.524;2023-02-15T23:13:18;4.30;99.90
21318;DHT22;10818;50.830;6.524;2023-02-15T23:18:29;4.00;99.90
21318;DHT22;10818;50.830;6.524;2023-02-15T23:23:37;4.10;99.90
21318;DHT22;10818;50.830;6.524;2023-02-15T23:28:38;4.00;99.90
21318;DHT22;10818;50.830;6.524;2023-02-15T23:33:38;4.10;99.90
21318;DHT22;10818;50.830;6.524;2023-02-15T23:38:39;4.00;99.90
21318;DHT22;10818;50.830;6.524;2023-02-15T23:43:40;3.90;99.90
21318;DHT22;10818;50.830;6.524;2023-02-15T23:48:41;3.90;99.90
21318;DHT22;10818;50.830;6.524;2023-02-15T23:53:42;3.60;99.90
21318;DHT22;10818;50.830;6.524;2023-02-15T23:58:43;3.60;99.90
